Greeley, Colorado
Current Conditions -  °F | °C
As of 1:15 AM on Sunday 21 Dec 2014 (Local Time) from KGXY Reporting Station
Clear Clear  
Wind Chill: 13°   Ceiling: Unl
Heat Index: 19°   Visibility: 10mi
Dew Point:   Wind: 5mph
Humidity: 63%   Direction: 340°NNW
Pressure: 29.86"   Gusts: NA
Location:  40.42°N, 104.69°W
Report Text: KGXY 210815Z AUTO 34004KT 10SM CLR M07/M13 A2986 RMK AO1
Loading
Personal Weather Stations






























Interactive Weather Map New forecast layout! Learn more

10-Day Weather Forecast

Advertisements
Track Severe Weather on mobile